sensor_id;sensor_type;location;lat;lon;timestamp;temperature;humidity
13211;DHT22;6670;51.53087800;7.23266500;2023-02-15T00:01:52;6.90;99.90
13211;DHT22;6670;51.53087800;7.23266500;2023-02-15T00:04:21;6.80;99.90
13211;DHT22;6670;51.53087800;7.23266500;2023-02-15T00:06:49;6.80;99.90
13211;DHT22;6670;51.53087800;7.23266500;2023-02-15T00:09:17;6.60;99.90
13211;DHT22;6670;51.53087800;7.23266500;2023-02-15T00:11:44;6.40;99.90
13211;DHT22;6670;51.53087800;7.23266500;2023-02-15T00:14:19;6.30;99.90
13211;DHT22;6670;51.53087800;7.23266500;2023-02-15T00:16:58;6.40;99.90
13211;DHT22;6670;51.53087800;7.23266500;2023-02-15T00:19:26;6.40;99.90
13211;DHT22;6670;51.53087800;7.23266500;2023-02-15T00:21:54;6.20;99.90
13211;DHT22;6670;51.53087800;7.23266500;2023-02-15T00:24:21;6.40;99.90
13211;DHT22;6670;51.53087800;7.23266500;2023-02-15T00:26:49;6.80;99.90
13211;DHT22;6670;51.53087800;7.23266500;2023-02-15T00:29:19;7.10;99.90
13211;DHT22;6670;51.53087800;7.23266500;2023-02-15T00:31:47;6.70;99.90
13211;DHT22;6670;51.53087800;7.23266500;2023-02-15T00:34:16;6.80;99.90
13211;DHT22;6670;51.53087800;7.23266500;2023-02-15T00:36:45;6.80;99.90
13211;DHT22;6670;51.53087800;7.23266500;2023-02-15T00:39:14;6.70;99.90
13211;DHT22;6670;51.53087800;7.23266500;2023-02-15T00:41:43;6.60;99.90
13211;DHT22;6670;51.53087800;7.23266500;2023-02-15T00:44:11;6.60;99.90
13211;DHT22;6670;51.53087800;7.23266500;2023-02-15T00:46:40;6.50;99.90
13211;DHT22;6670;51.53087800;7.23266500;2023-02-15T00:49:09;6.50;99.90
13211;DHT22;6670;51.53087800;7.23266500;2023-02-15T00:51:37;6.40;99.90
13211;DHT22;6670;51.53087800;7.23266500;2023-02-15T00:54:05;6.40;99.90
13211;DHT22;6670;51.53087800;7.23266500;2023-02-15T00:56:32;6.20;99.90
13211;DHT22;6670;51.53087800;7.23266500;2023-02-15T00:59:00;6.20;99.90
13211;DHT22;6670;51.53087800;7.23266500;2023-02-15T01:01:27;6.10;99.90
13211;DHT22;6670;51.53087800;7.23266500;2023-02-15T01:03:56;6.10;99.90
13211;DHT22;6670;51.53087800;7.23266500;2023-02-15T01:06:24;6.00;99.90
13211;DHT22;6670;51.53087800;7.23266500;2023-02-15T01:08:51;6.10;99.90
13211;DHT22;6670;51.53087800;7.23266500;2023-02-15T01:11:22;6.00;99.90
13211;DHT22;6670;51.53087800;7.23266500;2023-02-15T01:13:51;5.80;99.90
13211;DHT22;6670;51.53087800;7.23266500;2023-02-15T01:16:19;5.70;99.90
13211;DHT22;6670;51.53087800;7.23266500;2023-02-15T01:18:47;5.60;99.90
13211;DHT22;6670;51.53087800;7.23266500;2023-02-15T01:21:18;5.60;99.90
13211;DHT22;6670;51.53087800;7.23266500;2023-02-15T01:23:46;5.70;99.90
13211;DHT22;6670;51.53087800;7.23266500;2023-02-15T01:26:14;5.70;99.90
13211;DHT22;6670;51.53087800;7.23266500;2023-02-15T01:28:43;5.80;99.90
13211;DHT22;6670;51.53087800;7.23266500;2023-02-15T01:31:13;5.80;99.90
13211;DHT22;6670;51.53087800;7.23266500;2023-02-15T01:33:41;5.70;99.90
13211;DHT22;6670;51.53087800;7.23266500;2023-02-15T01:36:09;5.60;99.90
13211;DHT22;6670;51.53087800;7.23266500;2023-02-15T01:38:40;5.60;99.90
13211;DHT22;6670;51.53087800;7.23266500;2023-02-15T01:41:08;5.60;99.90
13211;DHT22;6670;51.53087800;7.23266500;2023-02-15T01:43:51;5.50;99.90
13211;DHT22;6670;51.53087800;7.23266500;2023-02-15T01:46:22;5.40;99.90
13211;DHT22;6670;51.53087800;7.23266500;2023-02-15T01:48:55;5.40;99.90
13211;DHT22;6670;51.53087800;7.23266500;2023-02-15T01:51:27;5.60;99.90
13211;DHT22;6670;51.53087800;7.23266500;2023-02-15T01:54:01;5.20;99.90
13211;DHT22;6670;51.53087800;7.23266500;2023-02-15T01:56:32;5.00;99.90
13211;DHT22;6670;51.53087800;7.23266500;2023-02-15T01:59:07;5.00;99.90
13211;DHT22;6670;51.53087800;7.23266500;2023-02-15T02:01:35;5.00;99.90
13211;DHT22;6670;51.53087800;7.23266500;2023-02-15T02:04:10;4.90;99.90
13211;DHT22;6670;51.53087800;7.23266500;2023-02-15T02:06:39;5.10;99.90
13211;DHT22;6670;51.53087800;7.23266500;2023-02-15T02:09:08;5.20;99.90
13211;DHT22;6670;51.53087800;7.23266500;2023-02-15T02:11:36;5.10;99.90
13211;DHT22;6670;51.53087800;7.23266500;2023-02-15T02:14:05;5.20;99.90
13211;DHT22;6670;51.53087800;7.23266500;2023-02-15T02:16:40;5.20;99.90
13211;DHT22;6670;51.53087800;7.23266500;2023-02-15T02:22:30;5.20;99.90
13211;DHT22;6670;51.53087800;7.23266500;2023-02-15T02:28:11;5.10;99.90
13211;DHT22;6670;51.53087800;7.23266500;2023-02-15T02:31:11;5.30;99.90
13211;DHT22;6670;51.53087800;7.23266500;2023-02-15T02:33:54;5.20;99.90
13211;DHT22;6670;51.53087800;7.23266500;2023-02-15T02:36:31;5.10;99.90
13211;DHT22;6670;51.53087800;7.23266500;2023-02-15T02:39:19;5.00;99.90
13211;DHT22;6670;51.53087800;7.23266500;2023-02-15T02:41:56;4.90;99.90
13211;DHT22;6670;51.53087800;7.23266500;2023-02-15T02:44:30;4.90;99.90
13211;DHT22;6670;51.53087800;7.23266500;2023-02-15T02:47:07;4.90;99.90
13211;DHT22;6670;51.53087800;7.23266500;2023-02-15T02:49:39;4.80;99.90
13211;DHT22;6670;51.53087800;7.23266500;2023-02-15T02:54:50;4.90;99.90
13211;DHT22;6670;51.53087800;7.23266500;2023-02-15T02:57:18;4.90;99.90
13211;DHT22;6670;51.53087800;7.23266500;2023-02-15T02:59:50;4.90;99.90
13211;DHT22;6670;51.53087800;7.23266500;2023-02-15T03:02:22;4.90;99.90
13211;DHT22;6670;51.53087800;7.23266500;2023-02-15T03:04:54;4.80;99.90
13211;DHT22;6670;51.53087800;7.23266500;2023-02-15T03:07:26;4.70;99.90
13211;DHT22;6670;51.53087800;7.23266500;2023-02-15T03:09:57;4.70;99.90
13211;DHT22;6670;51.53087800;7.23266500;2023-02-15T03:12:29;4.70;99.90
13211;DHT22;6670;51.53087800;7.23266500;2023-02-15T03:15:02;4.70;99.90
13211;DHT22;6670;51.53087800;7.23266500;2023-02-15T03:17:33;4.50;99.90
13211;DHT22;6670;51.53087800;7.23266500;2023-02-15T03:20:33;4.50;99.90
13211;DHT22;6670;51.53087800;7.23266500;2023-02-15T03:23:05;4.60;99.90
13211;DHT22;6670;51.53087800;7.23266500;2023-02-15T03:25:34;4.50;99.90
13211;DHT22;6670;51.53087800;7.23266500;2023-02-15T03:28:07;4.60;99.90
13211;DHT22;6670;51.53087800;7.23266500;2023-02-15T03:30:38;4.80;99.90
13211;DHT22;6670;51.53087800;7.23266500;2023-02-15T03:33:06;4.80;99.90
13211;DHT22;6670;51.53087800;7.23266500;2023-02-15T03:35:40;4.70;99.90
13211;DHT22;6670;51.53087800;7.23266500;2023-02-15T03:38:15;4.50;99.90
13211;DHT22;6670;51.53087800;7.23266500;2023-02-15T03:40:45;4.50;99.90
13211;DHT22;6670;51.53087800;7.23266500;2023-02-15T03:43:34;4.40;99.90
13211;DHT22;6670;51.53087800;7.23266500;2023-02-15T03:46:08;4.40;99.90
13211;DHT22;6670;51.53087800;7.23266500;2023-02-15T03:48:41;4.40;99.90
13211;DHT22;6670;51.53087800;7.23266500;2023-02-15T03:51:17;4.30;99.90
13211;DHT22;6670;51.53087800;7.23266500;2023-02-15T03:54:03;4.10;99.90
13211;DHT22;6670;51.53087800;7.23266500;2023-02-15T03:56:33;4.20;99.90
13211;DHT22;6670;51.53087800;7.23266500;2023-02-15T03:59:01;4.40;99.90
13211;DHT22;6670;51.53087800;7.23266500;2023-02-15T04:01:51;4.40;99.90
13211;DHT22;6670;51.53087800;7.23266500;2023-02-15T04:04:32;4.30;99.90
13211;DHT22;6670;51.53087800;7.23266500;2023-02-15T04:07:02;4.30;99.90
13211;DHT22;6670;51.53087800;7.23266500;2023-02-15T04:09:30;4.10;99.90
13211;DHT22;6670;51.53087800;7.23266500;2023-02-15T04:12:15;4.10;99.90
13211;DHT22;6670;51.53087800;7.23266500;2023-02-15T04:14:42;4.20;99.90
13211;DHT22;6670;51.53087800;7.23266500;2023-02-15T04:17:27;4.10;99.90
13211;DHT22;6670;51.53087800;7.23266500;2023-02-15T04:19:55;3.90;99.90
13211;DHT22;6670;51.53087800;7.23266500;2023-02-15T04:22:41;3.90;99.90
13211;DHT22;6670;51.53087800;7.23266500;2023-02-15T04:25:26;4.10;99.90
13211;DHT22;6670;51.53087800;7.23266500;2023-02-15T04:28:16;4.10;99.90
13211;DHT22;6670;51.53087800;7.23266500;2023-02-15T04:30:43;4.10;99.90
13211;DHT22;6670;51.53087800;7.23266500;2023-02-15T04:33:11;4.10;99.90
13211;DHT22;6670;51.53087800;7.23266500;2023-02-15T04:35:38;4.00;99.90
13211;DHT22;6670;51.53087800;7.23266500;2023-02-15T04:38:07;4.00;99.90
13211;DHT22;6670;51.53087800;7.23266500;2023-02-15T04:40:34;4.00;99.90
13211;DHT22;6670;51.53087800;7.23266500;2023-02-15T04:43:01;4.00;99.90
13211;DHT22;6670;51.53087800;7.23266500;2023-02-15T04:45:29;3.90;99.90
13211;DHT22;6670;51.53087800;7.23266500;2023-02-15T04:47:56;3.90;99.90
13211;DHT22;6670;51.53087800;7.23266500;2023-02-15T04:50:23;4.10;99.90
13211;DHT22;6670;51.53087800;7.23266500;2023-02-15T04:52:51;4.00;99.90
13211;DHT22;6670;51.53087800;7.23266500;2023-02-15T04:55:20;4.00;99.90
13211;DHT22;6670;51.53087800;7.23266500;2023-02-15T04:57:47;3.80;99.90
13211;DHT22;6670;51.53087800;7.23266500;2023-02-15T05:00:15;3.80;99.90
13211;DHT22;6670;51.53087800;7.23266500;2023-02-15T05:02:42;3.70;99.90
13211;DHT22;6670;51.53087800;7.23266500;2023-02-15T05:05:10;3.60;99.90
13211;DHT22;6670;51.53087800;7.23266500;2023-02-15T05:07:39;3.50;99.90
13211;DHT22;6670;51.53087800;7.23266500;2023-02-15T05:10:07;3.70;99.90
13211;DHT22;6670;51.53087800;7.23266500;2023-02-15T05:12:36;3.70;99.90
13211;DHT22;6670;51.53087800;7.23266500;2023-02-15T05:15:03;3.80;99.90
13211;DHT22;6670;51.53087800;7.23266500;2023-02-15T05:17:31;3.80;99.90
13211;DHT22;6670;51.53087800;7.23266500;2023-02-15T05:19:58;3.80;99.90
13211;DHT22;6670;51.53087800;7.23266500;2023-02-15T05:22:26;3.80;99.90
13211;DHT22;6670;51.53087800;7.23266500;2023-02-15T05:24:53;3.70;99.90
13211;DHT22;6670;51.53087800;7.23266500;2023-02-15T05:27:39;3.80;99.90
13211;DHT22;6670;51.53087800;7.23266500;2023-02-15T05:30:24;3.60;99.90
13211;DHT22;6670;51.53087800;7.23266500;2023-02-15T05:32:51;3.70;99.90
13211;DHT22;6670;51.53087800;7.23266500;2023-02-15T05:35:19;3.60;99.90
13211;DHT22;6670;51.53087800;7.23266500;2023-02-15T05:37:46;3.70;99.90
13211;DHT22;6670;51.53087800;7.23266500;2023-02-15T05:40:14;3.70;99.90
13211;DHT22;6670;51.53087800;7.23266500;2023-02-15T05:42:42;3.60;99.90
13211;DHT22;6670;51.53087800;7.23266500;2023-02-15T05:45:10;3.40;99.90
13211;DHT22;6670;51.53087800;7.23266500;2023-02-15T05:47:37;3.60;99.90
13211;DHT22;6670;51.53087800;7.23266500;2023-02-15T05:50:06;3.70;99.90
13211;DHT22;6670;51.53087800;7.23266500;2023-02-15T05:52:33;3.60;99.90
13211;DHT22;6670;51.53087800;7.23266500;2023-02-15T05:55:01;3.70;99.90
13211;DHT22;6670;51.53087800;7.23266500;2023-02-15T05:57:29;3.60;99.90
13211;DHT22;6670;51.53087800;7.23266500;2023-02-15T05:59:58;3.60;99.90
13211;DHT22;6670;51.53087800;7.23266500;2023-02-15T06:02:28;3.70;99.90
13211;DHT22;6670;51.53087800;7.23266500;2023-02-15T06:05:23;3.80;99.90
13211;DHT22;6670;51.53087800;7.23266500;2023-02-15T06:07:50;4.00;99.90
13211;DHT22;6670;51.53087800;7.23266500;2023-02-15T06:10:17;4.00;99.90
13211;DHT22;6670;51.53087800;7.23266500;2023-02-15T06:12:45;4.20;99.90
13211;DHT22;6670;51.53087800;7.23266500;2023-02-15T06:15:14;4.20;99.90
13211;DHT22;6670;51.53087800;7.23266500;2023-02-15T06:17:41;4.20;99.90
13211;DHT22;6670;51.53087800;7.23266500;2023-02-15T06:20:09;4.40;99.90
13211;DHT22;6670;51.53087800;7.23266500;2023-02-15T06:22:37;4.30;99.90
13211;DHT22;6670;51.53087800;7.23266500;2023-02-15T06:25:05;3.90;99.90
13211;DHT22;6670;51.53087800;7.23266500;2023-02-15T06:27:46;3.80;99.90
13211;DHT22;6670;51.53087800;7.23266500;2023-02-15T06:30:15;3.70;99.90
13211;DHT22;6670;51.53087800;7.23266500;2023-02-15T06:32:42;3.60;99.90
13211;DHT22;6670;51.53087800;7.23266500;2023-02-15T06:35:10;3.70;99.90
13211;DHT22;6670;51.53087800;7.23266500;2023-02-15T06:37:38;3.60;99.90
13211;DHT22;6670;51.53087800;7.23266500;2023-02-15T06:40:07;3.60;99.90
13211;DHT22;6670;51.53087800;7.23266500;2023-02-15T06:42:35;3.70;99.90
13211;DHT22;6670;51.53087800;7.23266500;2023-02-15T06:45:02;3.80;99.90
13211;DHT22;6670;51.53087800;7.23266500;2023-02-15T06:47:31;3.70;99.90
13211;DHT22;6670;51.53087800;7.23266500;2023-02-15T06:49:59;3.80;99.90
13211;DHT22;6670;51.53087800;7.23266500;2023-02-15T06:52:26;3.80;99.90
13211;DHT22;6670;51.53087800;7.23266500;2023-02-15T06:54:54;3.80;99.90
13211;DHT22;6670;51.53087800;7.23266500;2023-02-15T06:57:21;3.80;99.90
13211;DHT22;6670;51.53087800;7.23266500;2023-02-15T06:59:49;3.80;99.90
13211;DHT22;6670;51.53087800;7.23266500;2023-02-15T07:02:16;3.80;99.90
13211;DHT22;6670;51.53087800;7.23266500;2023-02-15T07:04:45;3.70;99.90
13211;DHT22;6670;51.53087800;7.23266500;2023-02-15T07:07:13;3.60;99.90
13211;DHT22;6670;51.53087800;7.23266500;2023-02-15T07:09:40;3.60;99.90
13211;DHT22;6670;51.53087800;7.23266500;2023-02-15T07:12:09;3.60;99.90
13211;DHT22;6670;51.53087800;7.23266500;2023-02-15T07:14:54;3.60;99.90
13211;DHT22;6670;51.53087800;7.23266500;2023-02-15T07:17:21;3.80;99.90
13211;DHT22;6670;51.53087800;7.23266500;2023-02-15T07:19:50;3.80;99.90
13211;DHT22;6670;51.53087800;7.23266500;2023-02-15T07:22:20;3.90;99.90
13211;DHT22;6670;51.53087800;7.23266500;2023-02-15T07:24:48;4.00;99.90
13211;DHT22;6670;51.53087800;7.23266500;2023-02-15T07:27:15;3.60;99.90
13211;DHT22;6670;51.53087800;7.23266500;2023-02-15T07:29:43;3.60;99.90
13211;DHT22;6670;51.53087800;7.23266500;2023-02-15T07:32:10;3.60;99.90
13211;DHT22;6670;51.53087800;7.23266500;2023-02-15T07:34:37;3.70;99.90
13211;DHT22;6670;51.53087800;7.23266500;2023-02-15T07:37:06;3.80;99.90
13211;DHT22;6670;51.53087800;7.23266500;2023-02-15T07:39:34;4.00;99.90
13211;DHT22;6670;51.53087800;7.23266500;2023-02-15T07:42:01;4.10;99.90
13211;DHT22;6670;51.53087800;7.23266500;2023-02-15T07:44:30;4.20;99.90
13211;DHT22;6670;51.53087800;7.23266500;2023-02-15T07:47:00;4.20;99.90
13211;DHT22;6670;51.53087800;7.23266500;2023-02-15T07:49:27;4.00;99.90
13211;DHT22;6670;51.53087800;7.23266500;2023-02-15T07:51:55;4.00;99.90
13211;DHT22;6670;51.53087800;7.23266500;2023-02-15T07:54:35;4.10;99.90
13211;DHT22;6670;51.53087800;7.23266500;2023-02-15T07:57:04;4.20;99.90
13211;DHT22;6670;51.53087800;7.23266500;2023-02-15T07:59:31;4.20;99.90
13211;DHT22;6670;51.53087800;7.23266500;2023-02-15T08:01:58;4.40;99.90
13211;DHT22;6670;51.53087800;7.23266500;2023-02-15T08:04:26;4.60;99.90
13211;DHT22;6670;51.53087800;7.23266500;2023-02-15T08:06:54;4.60;99.90
13211;DHT22;6670;51.53087800;7.23266500;2023-02-15T08:09:21;4.80;99.90
13211;DHT22;6670;51.53087800;7.23266500;2023-02-15T08:11:50;4.90;99.90
13211;DHT22;6670;51.53087800;7.23266500;2023-02-15T08:14:20;4.60;99.90
13211;DHT22;6670;51.53087800;7.23266500;2023-02-15T08:16:49;4.80;99.90
13211;DHT22;6670;51.53087800;7.23266500;2023-02-15T08:19:19;5.00;99.90
13211;DHT22;6670;51.53087800;7.23266500;2023-02-15T08:21:48;5.20;99.90
13211;DHT22;6670;51.53087800;7.23266500;2023-02-15T08:24:18;5.40;99.90
13211;DHT22;6670;51.53087800;7.23266500;2023-02-15T08:26:46;5.60;99.90
13211;DHT22;6670;51.53087800;7.23266500;2023-02-15T08:29:16;5.70;99.90
13211;DHT22;6670;51.53087800;7.23266500;2023-02-15T08:31:45;5.80;99.90
13211;DHT22;6670;51.53087800;7.23266500;2023-02-15T08:34:15;5.90;99.90
13211;DHT22;6670;51.53087800;7.23266500;2023-02-15T08:36:43;6.20;99.90
13211;DHT22;6670;51.53087800;7.23266500;2023-02-15T08:39:14;6.40;99.90
13211;DHT22;6670;51.53087800;7.23266500;2023-02-15T08:41:43;6.70;99.90
13211;DHT22;6670;51.53087800;7.23266500;2023-02-15T08:44:11;6.80;99.90
13211;DHT22;6670;51.53087800;7.23266500;2023-02-15T08:46:41;6.90;99.90
13211;DHT22;6670;51.53087800;7.23266500;2023-02-15T08:49:23;6.90;99.90
13211;DHT22;6670;51.53087800;7.23266500;2023-02-15T08:51:50;7.00;99.90
13211;DHT22;6670;51.53087800;7.23266500;2023-02-15T08:54:19;7.10;99.90
13211;DHT22;6670;51.53087800;7.23266500;2023-02-15T08:56:48;7.10;99.90
13211;DHT22;6670;51.53087800;7.23266500;2023-02-15T08:59:17;7.20;99.90
13211;DHT22;6670;51.53087800;7.23266500;2023-02-15T09:01:46;7.30;99.90
13211;DHT22;6670;51.53087800;7.23266500;2023-02-15T09:04:14;7.50;99.90
13211;DHT22;6670;51.53087800;7.23266500;2023-02-15T09:06:43;7.70;99.90
13211;DHT22;6670;51.53087800;7.23266500;2023-02-15T09:09:11;7.80;99.90
13211;DHT22;6670;51.53087800;7.23266500;2023-02-15T09:11:40;7.90;99.90
13211;DHT22;6670;51.53087800;7.23266500;2023-02-15T09:14:09;7.90;99.90
13211;DHT22;6670;51.53087800;7.23266500;2023-02-15T09:16:40;8.10;99.90
13211;DHT22;6670;51.53087800;7.23266500;2023-02-15T09:19:09;8.20;99.90
13211;DHT22;6670;51.53087800;7.23266500;2023-02-15T09:21:38;8.20;99.90
13211;DHT22;6670;51.53087800;7.23266500;2023-02-15T09:24:07;8.30;99.90
13211;DHT22;6670;51.53087800;7.23266500;2023-02-15T09:26:39;8.40;99.90
13211;DHT22;6670;51.53087800;7.23266500;2023-02-15T09:29:19;8.60;99.90
13211;DHT22;6670;51.53087800;7.23266500;2023-02-15T09:31:48;8.70;99.90
13211;DHT22;6670;51.53087800;7.23266500;2023-02-15T09:34:19;8.90;99.90
13211;DHT22;6670;51.53087800;7.23266500;2023-02-15T09:36:47;8.90;99.90
13211;DHT22;6670;51.53087800;7.23266500;2023-02-15T09:39:16;9.00;99.90
13211;DHT22;6670;51.53087800;7.23266500;2023-02-15T09:41:57;9.00;99.90
13211;DHT22;6670;51.53087800;7.23266500;2023-02-15T09:44:38;9.10;99.90
13211;DHT22;6670;51.53087800;7.23266500;2023-02-15T09:47:29;9.20;99.90
13211;DHT22;6670;51.53087800;7.23266500;2023-02-15T09:50:20;9.30;99.90
13211;DHT22;6670;51.53087800;7.23266500;2023-02-15T09:53:04;9.50;99.90
13211;DHT22;6670;51.53087800;7.23266500;2023-02-15T09:55:47;9.60;99.90
13211;DHT22;6670;51.53087800;7.23266500;2023-02-15T09:58:41;9.70;99.90
13211;DHT22;6670;51.53087800;7.23266500;2023-02-15T10:01:19;9.90;99.90
13211;DHT22;6670;51.53087800;7.23266500;2023-02-15T10:04:10;10.00;99.90
13211;DHT22;6670;51.53087800;7.23266500;2023-02-15T10:06:52;10.00;99.90
13211;DHT22;6670;51.53087800;7.23266500;2023-02-15T10:09:33;10.10;99.90
13211;DHT22;6670;51.53087800;7.23266500;2023-02-15T10:12:15;10.30;99.90
13211;DHT22;6670;51.53087800;7.23266500;2023-02-15T10:15:18;10.40;99.90
13211;DHT22;6670;51.53087800;7.23266500;2023-02-15T10:18:03;10.20;99.90
13211;DHT22;6670;51.53087800;7.23266500;2023-02-15T10:20:43;10.30;99.90
13211;DHT22;6670;51.53087800;7.23266500;2023-02-15T10:26:43;10.50;99.90
13211;DHT22;6670;51.53087800;7.23266500;2023-02-15T10:29:24;10.70;99.90
13211;DHT22;6670;51.53087800;7.23266500;2023-02-15T10:32:16;10.90;99.90
13211;DHT22;6670;51.53087800;7.23266500;2023-02-15T10:34:51;11.00;99.90
13211;DHT22;6670;51.53087800;7.23266500;2023-02-15T10:37:51;11.10;98.70
13211;DHT22;6670;51.53087800;7.23266500;2023-02-15T10:40:30;11.20;99.10
13211;DHT22;6670;51.53087800;7.23266500;2023-02-15T10:43:14;11.50;98.10
13211;DHT22;6670;51.53087800;7.23266500;2023-02-15T10:45:53;11.70;95.70
13211;DHT22;6670;51.53087800;7.23266500;2023-02-15T10:51:26;11.60;93.30
13211;DHT22;6670;51.53087800;7.23266500;2023-02-15T10:54:05;11.80;93.10
13211;DHT22;6670;51.53087800;7.23266500;2023-02-15T10:56:43;11.90;92.70
13211;DHT22;6670;51.53087800;7.23266500;2023-02-15T10:59:39;12.00;92.60
13211;DHT22;6670;51.53087800;7.23266500;2023-02-15T11:02:18;12.10;93.30
13211;DHT22;6670;51.53087800;7.23266500;2023-02-15T11:04:55;12.30;92.10
13211;DHT22;6670;51.53087800;7.23266500;2023-02-15T11:07:26;12.30;92.10
13211;DHT22;6670;51.53087800;7.23266500;2023-02-15T11:10:01;12.40;91.30
13211;DHT22;6670;51.53087800;7.23266500;2023-02-15T11:12:33;12.40;91.30
13211;DHT22;6670;51.53087800;7.23266500;2023-02-15T11:15:15;12.60;91.50
13211;DHT22;6670;51.53087800;7.23266500;2023-02-15T11:17:48;12.80;90.80
13211;DHT22;6670;51.53087800;7.23266500;2023-02-15T11:20:21;13.10;90.60
13211;DHT22;6670;51.53087800;7.23266500;2023-02-15T11:22:51;13.00;89.90
13211;DHT22;6670;51.53087800;7.23266500;2023-02-15T11:25:22;13.10;89.20
13211;DHT22;6670;51.53087800;7.23266500;2023-02-15T11:27:52;13.20;88.10
13211;DHT22;6670;51.53087800;7.23266500;2023-02-15T11:30:23;13.00;89.10
13211;DHT22;6670;51.53087800;7.23266500;2023-02-15T11:33:26;13.10;89.20
13211;DHT22;6670;51.53087800;7.23266500;2023-02-15T11:35:59;13.40;89.80
13211;DHT22;6670;51.53087800;7.23266500;2023-02-15T11:38:31;14.10;85.50
13211;DHT22;6670;51.53087800;7.23266500;2023-02-15T11:41:02;14.70;84.50
13211;DHT22;6670;51.53087800;7.23266500;2023-02-15T11:43:35;14.50;82.60
13211;DHT22;6670;51.53087800;7.23266500;2023-02-15T11:46:05;15.60;82.10
13211;DHT22;6670;51.53087800;7.23266500;2023-02-15T11:48:45;15.50;77.70
13211;DHT22;6670;51.53087800;7.23266500;2023-02-15T11:51:16;15.20;76.50
13211;DHT22;6670;51.53087800;7.23266500;2023-02-15T11:53:50;14.60;80.50
13211;DHT22;6670;51.53087800;7.23266500;2023-02-15T11:56:20;15.10;79.10
13211;DHT22;6670;51.53087800;7.23266500;2023-02-15T11:58:51;14.90;76.60
13211;DHT22;6670;51.53087800;7.23266500;2023-02-15T12:01:24;15.40;76.00
13211;DHT22;6670;51.53087800;7.23266500;2023-02-15T12:03:59;16.20;74.40
13211;DHT22;6670;51.53087800;7.23266500;2023-02-15T12:06:30;16.50;72.30
13211;DHT22;6670;51.53087800;7.23266500;2023-02-15T12:09:03;16.20;67.80
13211;DHT22;6670;51.53087800;7.23266500;2023-02-15T12:11:35;16.10;69.30
13211;DHT22;6670;51.53087800;7.23266500;2023-02-15T12:14:05;16.00;69.50
13211;DHT22;6670;51.53087800;7.23266500;2023-02-15T12:16:43;16.10;67.10
13211;DHT22;6670;51.53087800;7.23266500;2023-02-15T12:19:26;16.60;66.00
13211;DHT22;6670;51.53087800;7.23266500;2023-02-15T12:21:55;17.50;65.00
13211;DHT22;6670;51.53087800;7.23266500;2023-02-15T12:24:26;17.30;63.20
13211;DHT22;6670;51.53087800;7.23266500;2023-02-15T12:27:01;16.60;63.00
13211;DHT22;6670;51.53087800;7.23266500;2023-02-15T12:29:31;16.80;63.60
13211;DHT22;6670;51.53087800;7.23266500;2023-02-15T12:32:19;17.00;61.80
13211;DHT22;6670;51.53087800;7.23266500;2023-02-15T12:34:48;16.40;63.20
13211;DHT22;6670;51.53087800;7.23266500;2023-02-15T12:37:23;16.80;64.80
13211;DHT22;6670;51.53087800;7.23266500;2023-02-15T12:39:54;16.30;65.70
13211;DHT22;6670;51.53087800;7.23266500;2023-02-15T12:42:22;15.90;64.80
13211;DHT22;6670;51.53087800;7.23266500;2023-02-15T12:44:59;16.80;65.70
13211;DHT22;6670;51.53087800;7.23266500;2023-02-15T12:47:29;16.70;63.80
13211;DHT22;6670;51.53087800;7.23266500;2023-02-15T12:50:08;17.40;62.20
13211;DHT22;6670;51.53087800;7.23266500;2023-02-15T12:52:43;16.60;62.70
13211;DHT22;6670;51.53087800;7.23266500;2023-02-15T12:55:19;17.60;62.40
13211;DHT22;6670;51.53087800;7.23266500;2023-02-15T12:58:05;17.40;59.10
13211;DHT22;6670;51.53087800;7.23266500;2023-02-15T13:00:33;16.60;59.50
13211;DHT22;6670;51.53087800;7.23266500;2023-02-15T13:03:02;17.00;59.80
13211;DHT22;6670;51.53087800;7.23266500;2023-02-15T13:05:33;17.30;59.00
13211;DHT22;6670;51.53087800;7.23266500;2023-02-15T13:08:10;17.70;59.60
13211;DHT22;6670;51.53087800;7.23266500;2023-02-15T13:10:41;17.70;56.40
13211;DHT22;6670;51.53087800;7.23266500;2023-02-15T13:13:18;18.00;57.60
13211;DHT22;6670;51.53087800;7.23266500;2023-02-15T13:15:50;18.90;58.40
13211;DHT22;6670;51.53087800;7.23266500;2023-02-15T13:18:28;17.90;54.70
13211;DHT22;6670;51.53087800;7.23266500;2023-02-15T13:20:56;19.30;53.30
13211;DHT22;6670;51.53087800;7.23266500;2023-02-15T13:26:05;20.90;50.00
13211;DHT22;6670;51.53087800;7.23266500;2023-02-15T13:28:39;20.90;47.20
13211;DHT22;6670;51.53087800;7.23266500;2023-02-15T13:31:13;18.70;48.80
13211;DHT22;6670;51.53087800;7.23266500;2023-02-15T13:33:45;19.80;46.60
13211;DHT22;6670;51.53087800;7.23266500;2023-02-15T13:36:19;19.60;49.10
13211;DHT22;6670;51.53087800;7.23266500;2023-02-15T13:38:55;19.30;46.90
13211;DHT22;6670;51.53087800;7.23266500;2023-02-15T13:41:30;18.60;47.80
13211;DHT22;6670;51.53087800;7.23266500;2023-02-15T13:44:05;18.20;48.20
13211;DHT22;6670;51.53087800;7.23266500;2023-02-15T13:46:45;19.30;46.90
13211;DHT22;6670;51.53087800;7.23266500;2023-02-15T13:49:27;19.00;47.00
13211;DHT22;6670;51.53087800;7.23266500;2023-02-15T13:52:05;19.10;45.30
13211;DHT22;6670;51.53087800;7.23266500;2023-02-15T13:57:57;18.80;45.90
13211;DHT22;6670;51.53087800;7.23266500;2023-02-15T14:00:33;19.10;46.10
13211;DHT22;6670;51.53087800;7.23266500;2023-02-15T14:03:19;18.80;44.90
13211;DHT22;6670;51.53087800;7.23266500;2023-02-15T14:06:10;18.40;45.70
13211;DHT22;6670;51.53087800;7.23266500;2023-02-15T14:08:58;19.00;45.50
13211;DHT22;6670;51.53087800;7.23266500;2023-02-15T14:11:36;19.00;45.40
13211;DHT22;6670;51.53087800;7.23266500;2023-02-15T14:14:22;20.70;44.00
13211;DHT22;6670;51.53087800;7.23266500;2023-02-15T14:17:00;19.80;43.10
13211;DHT22;6670;51.53087800;7.23266500;2023-02-15T14:19:35;21.00;42.50
13211;DHT22;6670;51.53087800;7.23266500;2023-02-15T14:22:16;19.50;42.50
13211;DHT22;6670;51.53087800;7.23266500;2023-02-15T14:24:50;18.80;44.30
13211;DHT22;6670;51.53087800;7.23266500;2023-02-15T14:27:25;20.50;43.60
13211;DHT22;6670;51.53087800;7.23266500;2023-02-15T14:29:57;20.10;43.20
13211;DHT22;6670;51.53087800;7.23266500;2023-02-15T14:32:29;19.60;42.70
13211;DHT22;6670;51.53087800;7.23266500;2023-02-15T14:35:00;21.20;42.70